Time;durP1;ratioP1;P1;durP2;ratioP2;P2;SDS_P1;SDS_P2;PMS_P1;PMS_P2;Temp;Humidity;BMP_temperature;BMP_pressure;BME280_temperature;BME280_humidity;BME280_pressure;Samples;Min_cycle;Max_cycle;Signal;HPM_P1;HPM_P2
2023/02/24 00:01:36;;;;;;;5.45;2.25;;;15.70;55.40;;;;;;5115460;28;20173;-58
2023/02/24 00:04:06;;;;;;;5.43;2.47;;;15.70;55.30;;;;;;5114825;28;20186;-56
2023/02/24 00:06:39;;;;;;;4.10;2.25;;;15.70;55.20;;;;;;5115351;28;20169;-56
2023/02/24 00:09:16;;;;;;;4.75;2.60;;;15.70;55.20;;;;;;5115620;28;20696;-56
2023/02/24 00:11:44;;;;;;;4.80;2.58;;;15.70;55.10;;;;;;5114554;27;20576;-55
2023/02/24 00:14:11;;;;;;;3.03;2.20;;;15.70;55.00;;;;;;5115552;28;20186;-56
2023/02/24 00:16:37;;;;;;;4.60;2.80;;;15.70;55.10;;;;;;5115268;28;20216;-57
2023/02/24 00:19:03;;;;;;;5.60;2.63;;;15.70;55.10;;;;;;5114118;28;20271;-56
2023/02/24 00:21:28;;;;;;;6.28;2.50;;;15.60;55.00;;;;;;5115257;27;20177;-55
2023/02/24 00:24:00;;;;;;;5.57;2.55;;;15.60;55.00;;;;;;5115119;28;20177;-55
2023/02/24 00:26:28;;;;;;;3.55;2.22;;;15.60;55.00;;;;;;5114430;28;20180;-55
2023/02/24 00:28:59;;;;;;;5.32;2.83;;;15.60;55.00;;;;;;5114552;28;20553;-54
2023/02/24 00:31:38;;;;;;;4.20;2.55;;;15.60;54.90;;;;;;5114959;28;20631;-54
2023/02/24 00:34:03;;;;;;;4.68;2.50;;;15.60;55.00;;;;;;5114225;28;20187;-56
2023/02/24 00:36:32;;;;;;;3.00;1.92;;;15.60;55.00;;;;;;5115258;28;20173;-55
2023/02/24 00:39:08;;;;;;;4.22;2.40;;;15.60;54.90;;;;;;5114152;28;20169;-56
2023/02/24 00:41:34;;;;;;;3.35;2.20;;;15.60;54.80;;;;;;5114654;28;20173;-57
2023/02/24 00:44:08;;;;;;;4.60;2.78;;;15.50;54.80;;;;;;5114901;28;20177;-58
2023/02/24 00:46:36;;;;;;;3.53;1.80;;;15.50;54.80;;;;;;5113100;28;20177;-56
2023/02/24 00:49:09;;;;;;;2.80;2.10;;;15.50;54.80;;;;;;5114812;28;20217;-54
2023/02/24 00:51:36;;;;;;;5.47;2.15;;;15.50;54.80;;;;;;5114480;28;20495;-55
2023/02/24 00:54:02;;;;;;;4.18;2.20;;;15.50;54.70;;;;;;5114039;28;20177;-54
2023/02/24 00:56:30;;;;;;;3.00;1.92;;;15.50;54.70;;;;;;5114725;28;20177;-55
2023/02/24 00:59:00;;;;;;;4.22;2.00;;;15.50;54.80;;;;;;5114296;28;20165;-57
2023/02/24 01:01:31;;;;;;;3.45;2.20;;;15.50;54.70;;;;;;5113845;28;20655;-59
2023/02/24 01:03:57;;;;;;;3.45;1.90;;;15.50;54.70;;;;;;5115053;28;20185;-58
2023/02/24 01:06:28;;;;;;;4.82;2.10;;;15.50;54.70;;;;;;5114449;28;20635;-55
2023/02/24 01:08:56;;;;;;;4.07;1.90;;;15.50;55.30;;;;;;5113185;28;20213;-54
2023/02/24 01:14:16;;;;;;;3.17;2.03;;;15.50;54.70;;;;;;5113453;28;20234;-56
2023/02/24 01:16:43;;;;;;;3.80;2.03;;;15.50;54.70;;;;;;5113966;27;20608;-56
2023/02/24 01:19:09;;;;;;;2.83;1.98;;;15.40;54.80;;;;;;5113933;28;20232;-55
2023/02/24 01:21:35;;;;;;;3.75;1.90;;;15.50;54.80;;;;;;5113231;28;20591;-55
2023/02/24 01:24:03;;;;;;;2.67;1.67;;;15.40;54.60;;;;;;5114124;28;20525;-58
2023/02/24 01:26:29;;;;;;;2.63;1.75;;;15.40;54.60;;;;;;5114187;28;20173;-55
2023/02/24 01:28:55;;;;;;;2.97;2.13;;;15.40;54.60;;;;;;5113021;28;20205;-55
2023/02/24 01:31:22;;;;;;;2.35;1.50;;;15.40;54.60;;;;;;5113920;28;20526;-55
2023/02/24 01:33:50;;;;;;;5.50;2.63;;;15.40;54.60;;;;;;5113464;28;20177;-54
2023/02/24 01:36:26;;;;;;;3.78;1.80;;;15.40;54.60;;;;;;5113076;28;20636;-55
2023/02/24 01:38:54;;;;;;;3.10;1.58;;;15.40;54.70;;;;;;5113730;28;20241;-56
2023/02/24 01:41:26;;;;;;;4.82;2.22;;;15.40;54.60;;;;;;5113574;28;20169;-57
2023/02/24 01:44:08;;;;;;;3.58;1.67;;;15.40;54.60;;;;;;5113637;28;20191;-55
2023/02/24 01:46:35;;;;;;;5.07;1.90;;;15.30;54.50;;;;;;5113974;28;20195;-57
2023/02/24 01:49:07;;;;;;;2.88;1.75;;;15.40;54.50;;;;;;5113302;28;20212;-54
2023/02/24 01:51:35;;;;;;;4.75;2.33;;;15.30;54.50;;;;;;5111786;28;20173;-55
2023/02/24 01:54:04;;;;;;;2.97;1.42;;;15.40;54.50;;;;;;5112469;28;20177;-54
2023/02/24 01:56:30;;;;;;;4.00;1.92;;;15.30;54.50;;;;;;5112729;28;20181;-54
2023/02/24 01:58:55;;;;;;;2.67;1.83;;;15.30;54.50;;;;;;5110924;28;20220;-57
2023/02/24 02:01:21;;;;;;;2.10;1.60;;;15.30;54.50;;;;;;5111941;28;20261;-58
2023/02/24 02:03:47;;;;;;;3.08;1.80;;;15.30;54.50;;;;;;5112481;28;20264;-56
2023/02/24 02:06:16;;;;;;;2.42;1.45;;;15.30;54.40;;;;;;5094900;28;20208;-56
2023/02/24 02:08:42;;;;;;;3.08;1.65;;;15.30;54.50;;;;;;5111581;28;20201;-55
2023/02/24 02:11:10;;;;;;;3.08;1.90;;;15.30;54.50;;;;;;5112607;28;20260;-55
2023/02/24 02:13:41;;;;;;;2.97;1.80;;;15.30;54.50;;;;;;5112827;28;20184;-56
2023/02/24 02:16:24;;;;;;;3.38;1.70;;;15.30;54.50;;;;;;5113262;28;20180;-54
2023/02/24 02:19:14;;;;;;;2.45;1.50;;;15.20;54.40;;;;;;5111995;28;20677;-57
2023/02/24 02:21:59;;;;;;;2.20;1.55;;;15.30;54.40;;;;;;5112982;28;20542;-56
2023/02/24 02:24:44;;;;;;;2.92;1.50;;;15.20;54.40;;;;;;5110937;28;20173;-55
2023/02/24 02:27:28;;;;;;;3.20;1.73;;;15.20;54.20;;;;;;5112956;28;20264;-54
2023/02/24 02:30:22;;;;;;;2.42;1.52;;;15.20;54.40;;;;;;5111373;28;20671;-55
2023/02/24 02:33:06;;;;;;;2.75;1.55;;;15.20;54.40;;;;;;5111912;28;20188;-57
2023/02/24 02:35:36;;;;;;;3.60;1.80;;;15.30;54.40;;;;;;5112918;28;20176;-56
2023/02/24 02:38:24;;;;;;;2.53;1.70;;;15.20;54.30;;;;;;5111768;28;20165;-57
2023/02/24 02:41:23;;;;;;;3.30;1.70;;;15.20;54.30;;;;;;5112672;28;20177;-56
2023/02/24 02:44:10;;;;;;;3.20;1.80;;;15.20;54.40;;;;;;5111853;28;20188;-57
2023/02/24 02:47:00;;;;;;;2.47;1.60;;;15.20;55.00;;;;;;5111866;28;20280;-56
2023/02/24 02:49:31;;;;;;;1.80;1.40;;;15.20;54.20;;;;;;5099976;28;20213;-56
2023/02/24 02:52:04;;;;;;;2.70;1.63;;;15.10;54.80;;;;;;5111444;28;20593;-56
2023/02/24 02:54:35;;;;;;;4.13;2.50;;;15.10;54.20;;;;;;5110499;28;20280;-56
2023/02/24 02:57:08;;;;;;;2.35;1.75;;;15.10;54.40;;;;;;5112840;28;20521;-57
2023/02/24 02:59:34;;;;;;;3.50;1.90;;;15.10;54.30;;;;;;5110712;28;20203;-57
2023/02/24 03:02:10;;;;;;;2.20;1.60;;;15.10;54.30;;;;;;5111758;28;20169;-58
2023/02/24 03:04:41;;;;;;;1.67;1.30;;;15.10;54.50;;;;;;5111589;28;20550;-55
2023/02/24 03:07:09;;;;;;;3.92;1.77;;;15.10;54.20;;;;;;5110937;28;20169;-57
2023/02/24 03:09:38;;;;;;;3.10;1.70;;;15.10;54.30;;;;;;5112424;28;20216;-56
2023/02/24 03:12:13;;;;;;;2.42;1.50;;;15.10;54.20;;;;;;5115475;28;20177;-55
2023/02/24 03:14:41;;;;;;;2.25;1.55;;;15.10;54.20;;;;;;5114641;28;20187;-56
2023/02/24 03:17:09;;;;;;;3.92;1.65;;;15.10;54.30;;;;;;5115523;28;20549;-56
2023/02/24 03:19:38;;;;;;;3.08;1.55;;;15.10;54.40;;;;;;5114935;28;20646;-56
2023/02/24 03:22:11;;;;;;;4.03;1.73;;;15.10;54.30;;;;;;5115811;27;20185;-55
2023/02/24 03:24:38;;;;;;;2.95;1.50;;;15.00;54.30;;;;;;5115162;28;20256;-53
2023/02/24 03:27:23;;;;;;;1.90;1.42;;;15.00;54.40;;;;;;5115080;28;20678;-56
2023/02/24 03:30:08;;;;;;;3.90;1.90;;;15.10;54.20;;;;;;5114214;28;20230;-54
2023/02/24 03:32:49;;;;;;;3.20;1.50;;;15.00;54.20;;;;;;5116119;28;20177;-56
2023/02/24 03:35:16;;;;;;;3.17;1.70;;;15.00;54.30;;;;;;5115556;28;20604;-55
2023/02/24 03:37:41;;;;;;;2.83;1.90;;;15.00;54.00;;;;;;5115878;28;20624;-56
2023/02/24 03:40:13;;;;;;;3.42;1.75;;;15.00;54.20;;;;;;5114974;28;20180;-58
2023/02/24 03:42:50;;;;;;;3.30;1.70;;;15.00;54.20;;;;;;5113944;28;20177;-57
2023/02/24 03:45:21;;;;;;;2.15;1.50;;;15.00;54.20;;;;;;5114924;28;20245;-57
2023/02/24 03:47:47;;;;;;;2.45;1.98;;;15.00;54.20;;;;;;5115607;28;20650;-56
2023/02/24 03:50:18;;;;;;;2.80;1.85;;;15.00;54.20;;;;;;5115337;28;20219;-55
2023/02/24 03:52:55;;;;;;;2.72;1.70;;;15.00;54.20;;;;;;5115578;28;20169;-54
2023/02/24 03:55:58;;;;;;;1.90;1.55;;;15.00;54.00;;;;;;5114645;28;20212;-55
2023/02/24 03:58:26;;;;;;;2.65;1.60;;;14.90;54.10;;;;;;5115677;28;20267;-55
2023/02/24 04:01:24;;;;;;;3.72;2.05;;;14.90;54.10;;;;;;5115495;28;20242;-56
2023/02/24 04:03:57;;;;;;;1.70;1.60;;;14.90;54.10;;;;;;5080154;28;20177;-57
2023/02/24 04:06:41;;;;;;;2.60;1.80;;;14.90;54.20;;;;;;5115523;28;20181;-56
2023/02/24 04:09:32;;;;;;;3.22;1.77;;;14.90;54.20;;;;;;5115657;28;20220;-56
2023/02/24 04:12:08;;;;;;;2.47;1.80;;;14.90;54.20;;;;;;5114904;28;20532;-54
2023/02/24 04:14:57;;;;;;;2.60;1.48;;;14.90;54.20;;;;;;5113949;28;20286;-54
2023/02/24 04:17:31;;;;;;;2.95;1.85;;;14.90;54.20;;;;;;5102718;28;20208;-53
2023/02/24 04:19:58;;;;;;;2.53;1.67;;;14.90;54.30;;;;;;5113960;28;20180;-56
2023/02/24 04:22:25;;;;;;;3.63;1.98;;;14.90;54.20;;;;;;5112945;28;20292;-54
2023/02/24 04:24:54;;;;;;;2.95;2.17;;;14.90;54.20;;;;;;5112906;28;20261;-55
2023/02/24 04:27:19;;;;;;;3.92;2.17;;;14.90;54.20;;;;;;5114019;28;20560;-56
2023/02/24 04:29:53;;;;;;;2.50;1.63;;;14.90;54.20;;;;;;5113677;28;20216;-54
2023/02/24 04:32:26;;;;;;;3.88;2.08;;;14.90;54.30;;;;;;5113107;28;20511;-53
2023/02/24 04:34:59;;;;;;;3.20;2.00;;;14.90;54.30;;;;;;5113567;28;20580;-56
2023/02/24 04:37:33;;;;;;;2.13;1.63;;;14.80;54.20;;;;;;5114999;28;20181;-57
2023/02/24 04:39:59;;;;;;;4.10;1.50;;;14.80;54.20;;;;;;5114386;28;20301;-56
2023/02/24 04:42:25;;;;;;;2.65;1.83;;;14.80;54.30;;;;;;5115118;28;20177;-57
2023/02/24 04:44:52;;;;;;;4.30;2.13;;;14.80;54.20;;;;;;5114785;28;20643;-58
2023/02/24 04:47:18;;;;;;;2.28;1.70;;;14.80;54.20;;;;;;5114080;28;20321;-57
2023/02/24 04:49:44;;;;;;;2.38;1.60;;;14.80;54.10;;;;;;5114541;28;20217;-56
2023/02/24 04:52:10;;;;;;;2.22;1.55;;;14.80;54.20;;;;;;5113521;28;20188;-56
2023/02/24 04:54:37;;;;;;;3.53;1.92;;;14.80;54.20;;;;;;5114777;28;20177;-56
2023/02/24 04:57:11;;;;;;;3.60;1.92;;;14.80;54.30;;;;;;5114519;28;20619;-54
2023/02/24 04:59:37;;;;;;;3.38;1.65;;;14.80;54.30;;;;;;5113622;28;20173;-56
2023/02/24 05:02:08;;;;;;;1.70;1.60;;;14.80;54.30;;;;;;5114541;28;20165;-57
2023/02/24 05:04:37;;;;;;;1.75;1.58;;;14.80;54.40;;;;;;5114371;28;20172;-58
2023/02/24 05:07:03;;;;;;;2.50;1.63;;;14.80;54.40;;;;;;5113906;28;20234;-57
2023/02/24 05:09:29;;;;;;;1.67;1.58;;;14.70;54.40;;;;;;5113435;28;20224;-57
2023/02/24 05:11:56;;;;;;;4.22;1.73;;;14.80;54.40;;;;;;5114008;28;20619;-56
2023/02/24 05:14:21;;;;;;;2.97;1.75;;;14.80;54.30;;;;;;5113438;28;20177;-56
2023/02/24 05:16:47;;;;;;;2.85;2.05;;;14.80;54.20;;;;;;5114007;28;20264;-57
2023/02/24 05:21:59;;;;;;;2.95;1.67;;;14.70;54.30;;;;;;5113377;28;20230;-55
2023/02/24 05:24:25;;;;;;;2.85;1.52;;;14.70;54.20;;;;;;5114051;28;20635;-55
2023/02/24 05:26:57;;;;;;;3.75;1.73;;;14.70;54.30;;;;;;5113504;28;20548;-57
2023/02/24 05:29:29;;;;;;;2.65;1.80;;;14.70;54.30;;;;;;5113372;28;20543;-55
2023/02/24 05:31:58;;;;;;;3.70;1.98;;;14.70;54.50;;;;;;5113632;28;20165;-56
2023/02/24 05:34:24;;;;;;;1.90;1.55;;;14.70;54.50;;;;;;5113070;28;20177;-57
2023/02/24 05:36:52;;;;;;;3.30;1.92;;;14.70;54.20;;;;;;5113710;28;20226;-56
2023/02/24 05:39:18;;;;;;;2.90;1.88;;;14.70;54.40;;;;;;5113750;28;20604;-57
2023/02/24 05:41:47;;;;;;;3.35;2.10;;;14.70;54.40;;;;;;5112701;28;20594;-57
2023/02/24 05:44:22;;;;;;;2.97;1.58;;;14.70;54.30;;;;;;5113617;28;20449;-57
2023/02/24 05:46:48;;;;;;;3.15;2.00;;;14.70;54.40;;;;;;5113588;28;20180;-57
2023/02/24 05:49:22;;;;;;;3.35;1.73;;;14.70;54.40;;;;;;5112951;28;20212;-57
2023/02/24 05:51:55;;;;;;;4.15;1.90;;;14.70;54.40;;;;;;5113110;28;20203;-56
2023/02/24 05:54:31;;;;;;;2.38;1.75;;;14.60;54.50;;;;;;5113575;27;20200;-55
2023/02/24 05:57:11;;;;;;;2.10;1.67;;;14.60;54.50;;;;;;5112407;28;20175;-56
2023/02/24 05:59:37;;;;;;;1.95;1.30;;;14.60;54.70;;;;;;5113113;28;20226;-56
2023/02/24 06:02:08;;;;;;;2.78;1.83;;;14.60;55.20;;;;;;5113189;28;20280;-57
2023/02/24 06:04:45;;;;;;;3.15;1.80;;;14.70;54.70;;;;;;5112383;28;20176;-58
2023/02/24 06:07:18;;;;;;;2.55;1.85;;;14.70;54.50;;;;;;5113206;28;20633;-58
2023/02/24 06:09:52;;;;;;;2.45;1.90;;;14.80;54.20;;;;;;5112370;28;20215;-56
2023/02/24 06:12:21;;;;;;;3.65;1.60;;;15.00;54.00;;;;;;5113060;28;20176;-56
2023/02/24 06:14:47;;;;;;;3.20;1.50;;;15.10;53.90;;;;;;5112896;28;20541;-57
2023/02/24 06:17:17;;;;;;;2.03;1.58;;;15.20;54.40;;;;;;5112653;28;20169;-56
2023/02/24 06:19:43;;;;;;;2.45;1.77;;;15.40;53.60;;;;;;5112250;28;20698;-56
2023/02/24 06:22:14;;;;;;;2.97;1.55;;;15.50;53.40;;;;;;5113232;28;20200;-56
2023/02/24 06:24:48;;;;;;;2.22;1.70;;;15.60;53.20;;;;;;5110775;28;20187;-56
2023/02/24 06:27:17;;;;;;;2.15;1.80;;;15.70;53.10;;;;;;5113132;28;20180;-56
2023/02/24 06:29:53;;;;;;;3.10;1.63;;;15.80;52.90;;;;;;5112805;28;20257;-56
2023/02/24 06:32:22;;;;;;;1.65;1.33;;;15.90;52.80;;;;;;5112123;28;20171;-57
2023/02/24 06:34:53;;;;;;;2.15;1.83;;;15.90;52.70;;;;;;5112887;28;20180;-57
2023/02/24 06:37:19;;;;;;;3.63;2.05;;;16.00;52.60;;;;;;5112754;28;20188;-57
2023/02/24 06:39:44;;;;;;;2.78;1.83;;;16.00;52.60;;;;;;5111927;28;20173;-58
2023/02/24 06:42:10;;;;;;;2.95;1.70;;;16.10;52.60;;;;;;5112736;28;20649;-58
2023/02/24 06:44:37;;;;;;;2.75;1.50;;;16.20;52.60;;;;;;5110134;28;20204;-58
2023/02/24 06:47:03;;;;;;;1.88;1.63;;;16.20;52.60;;;;;;5113158;28;20215;-59
2023/02/24 06:49:29;;;;;;;2.30;1.60;;;16.20;52.60;;;;;;5112842;28;20652;-57
2023/02/24 06:51:54;;;;;;;3.58;1.83;;;16.20;52.60;;;;;;5111609;28;20172;-57
2023/02/24 06:54:24;;;;;;;2.55;1.80;;;16.20;52.50;;;;;;5112739;28;20271;-56
2023/02/24 06:56:50;;;;;;;1.95;1.35;;;16.20;52.60;;;;;;5112372;28;20537;-57
2023/02/24 06:59:20;;;;;;;2.28;1.33;;;16.10;52.60;;;;;;5111913;28;20169;-59
2023/02/24 07:01:47;;;;;;;4.72;1.83;;;16.10;52.70;;;;;;5112535;28;20188;-58
2023/02/24 07:06:41;;;;;;;2.90;1.60;;;16.20;52.80;;;;;;5111765;28;20173;-58
2023/02/24 07:09:12;;;;;;;3.55;1.85;;;16.20;52.80;;;;;;5112475;28;20219;-57
2023/02/24 07:11:40;;;;;;;3.38;2.08;;;16.30;52.60;;;;;;5112252;28;20203;-56
2023/02/24 07:14:06;;;;;;;1.67;1.30;;;16.50;52.60;;;;;;5111694;28;20527;-58
2023/02/24 07:16:33;;;;;;;2.80;1.40;;;16.60;52.40;;;;;;5112028;28;20177;-57
2023/02/24 07:19:01;;;;;;;2.83;1.65;;;16.90;52.10;;;;;;5112272;28;20217;-57
2023/02/24 07:21:29;;;;;;;2.83;1.70;;;17.20;51.60;;;;;;5111753;28;20173;-56
2023/02/24 07:23:55;;;;;;;2.53;1.60;;;17.30;51.30;;;;;;5112203;28;20262;-55
2023/02/24 07:26:22;;;;;;;1.58;1.30;;;17.40;51.20;;;;;;5112384;28;20220;-56
2023/02/24 07:28:48;;;;;;;2.33;1.50;;;17.40;51.20;;;;;;5111517;28;20169;-56
2023/02/24 07:31:16;;;;;;;1.63;1.30;;;17.40;51.10;;;;;;5112350;28;20256;-54
2023/02/24 07:33:45;;;;;;;2.83;1.70;;;17.50;51.20;;;;;;5112165;28;20195;-56
2023/02/24 07:36:13;;;;;;;2.78;1.60;;;17.50;50.90;;;;;;5112300;28;20173;-56
2023/02/24 07:38:40;;;;;;;1.30;1.20;;;17.60;51.00;;;;;;5112040;28;20180;-56
2023/02/24 07:41:06;;;;;;;1.90;1.55;;;17.60;50.90;;;;;;5111550;28;20173;-57
2023/02/24 07:43:34;;;;;;;2.20;1.30;;;17.60;50.90;;;;;;5111991;28;20185;-57
2023/02/24 07:46:07;;;;;;;2.88;1.80;;;17.50;50.90;;;;;;5112383;28;20170;-56
2023/02/24 07:48:35;;;;;;;1.73;1.48;;;17.40;51.10;;;;;;5111100;28;20169;-55
2023/02/24 07:51:01;;;;;;;2.13;1.30;;;17.40;51.40;;;;;;5112217;28;20197;-55
2023/02/24 07:53:26;;;;;;;3.25;1.35;;;17.30;51.40;;;;;;5110716;28;20180;-54
2023/02/24 07:55:53;;;;;;;2.88;1.30;;;17.20;51.50;;;;;;5111366;28;20546;-54
2023/02/24 07:58:19;;;;;;;3.38;1.58;;;17.20;51.80;;;;;;5115149;28;20177;-55
2023/02/24 08:01:07;;;;;;;1.83;1.20;;;17.20;51.80;;;;;;5115635;28;20218;-57
2023/02/24 08:03:40;;;;;;;1.92;1.23;;;17.10;51.90;;;;;;5114772;28;20177;-58
2023/02/24 08:06:14;;;;;;;2.63;1.40;;;17.20;51.90;;;;;;5115779;28;20177;-58
2023/02/24 08:08:56;;;;;;;4.60;1.92;;;17.20;52.00;;;;;;5115283;28;20643;-56
2023/02/24 08:11:23;;;;;;;2.38;1.40;;;17.20;52.00;;;;;;5115632;28;20187;-67
2023/02/24 08:13:49;;;;;;;4.32;1.77;;;17.20;51.90;;;;;;5115132;28;20612;-67
2023/02/24 08:16:15;;;;;;;3.05;1.30;;;17.30;52.10;;;;;;5114681;28;20189;-65
2023/02/24 08:18:47;;;;;;;3.60;1.58;;;17.30;52.10;;;;;;5115015;28;20747;-64
2023/02/24 08:21:18;;;;;;;2.63;1.42;;;17.40;52.10;;;;;;5115379;28;20181;-64
2023/02/24 08:23:47;;;;;;;2.38;1.33;;;17.40;52.40;;;;;;5114225;28;20248;-64
2023/02/24 08:26:13;;;;;;;5.38;1.48;;;17.50;52.60;;;;;;5115315;28;20549;-65
2023/02/24 08:28:39;;;;;;;2.90;1.20;;;17.50;53.30;;;;;;5114863;28;20176;-65
2023/02/24 08:31:05;;;;;;;3.63;1.42;;;17.50;52.80;;;;;;5114140;28;20189;-67
2023/02/24 08:33:31;;;;;;;3.80;1.52;;;17.40;52.90;;;;;;5115537;28;20165;-69
2023/02/24 08:36:02;;;;;;;3.17;1.42;;;17.40;53.00;;;;;;5114755;28;20276;-67
2023/02/24 08:38:43;;;;;;;2.38;1.52;;;17.40;53.20;;;;;;5114442;28;20711;-66
2023/02/24 08:41:19;;;;;;;3.85;1.38;;;17.40;53.20;;;;;;5115019;28;20182;-61
2023/02/24 08:43:46;;;;;;;3.95;1.60;;;17.50;53.30;;;;;;5114508;28;20177;-62
2023/02/24 08:46:11;;;;;;;5.95;1.67;;;17.50;53.20;;;;;;5114405;28;20196;-62
2023/02/24 08:48:48;;;;;;;3.17;1.67;;;17.50;53.10;;;;;;5114701;28;20635;-62
2023/02/24 08:51:21;;;;;;;3.33;1.48;;;17.50;53.20;;;;;;5114077;28;20177;-61
2023/02/24 08:53:48;;;;;;;3.10;1.52;;;17.50;53.30;;;;;;5114312;28;20173;-62
2023/02/24 08:56:22;;;;;;;3.70;1.23;;;17.50;53.30;;;;;;5113193;28;20532;-62
2023/02/24 08:58:48;;;;;;;2.90;1.30;;;17.50;53.30;;;;;;5113399;28;20179;-63
2023/02/24 09:01:22;;;;;;;3.22;1.40;;;17.50;53.30;;;;;;5114375;28;20660;-64
2023/02/24 09:03:49;;;;;;;3.97;1.65;;;17.50;53.30;;;;;;5114242;28;20177;-62
2023/02/24 09:06:17;;;;;;;3.15;1.42;;;17.40;53.40;;;;;;5113569;28;20229;-62
2023/02/24 09:08:43;;;;;;;2.65;1.25;;;17.30;53.50;;;;;;5113448;28;20278;-62
2023/02/24 09:11:12;;;;;;;2.53;1.25;;;17.30;53.70;;;;;;5114647;28;20185;-62
2023/02/24 09:13:50;;;;;;;3.22;1.52;;;17.20;53.80;;;;;;5113082;28;20350;-61
2023/02/24 09:16:19;;;;;;;3.15;1.67;;;17.10;53.90;;;;;;5112992;28;20200;-66
2023/02/24 09:18:44;;;;;;;3.50;1.70;;;17.10;53.90;;;;;;5110613;28;20255;-64
2023/02/24 09:23:59;;;;;;;4.00;1.35;;;17.10;54.00;;;;;;5112277;28;20192;-64
2023/02/24 09:26:24;;;;;;;3.60;1.50;;;17.10;53.90;;;;;;5110207;28;20616;-63
2023/02/24 09:28:56;;;;;;;1.83;1.45;;;17.10;53.90;;;;;;5113522;28;20176;-64
2023/02/24 09:31:39;;;;;;;5.28;1.40;;;17.10;54.10;;;;;;5114061;28;20241;-64
2023/02/24 09:34:09;;;;;;;4.05;1.73;;;17.10;54.10;;;;;;5112371;28;20181;-64
2023/02/24 09:36:43;;;;;;;5.65;1.40;;;17.00;54.10;;;;;;5113634;28;20226;-63
2023/02/24 09:39:09;;;;;;;1.25;0.98;;;16.90;54.20;;;;;;5113923;28;20183;-64
2023/02/24 09:44:34;;;;;;;3.13;1.15;;;16.90;54.20;;;;;;5113888;28;20200;-64
2023/02/24 09:47:29;;;;;;;3.67;1.83;;;16.90;54.20;;;;;;5113657;28;20692;-62
2023/02/24 09:50:05;;;;;;;3.00;1.30;;;17.00;54.20;;;;;;5113350;28;20204;-61
2023/02/24 09:52:39;;;;;;;3.10;1.30;;;17.00;54.10;;;;;;5112495;28;20176;-62
2023/02/24 09:55:26;;;;;;;3.03;1.30;;;17.00;54.10;;;;;;5113021;28;20176;-62
2023/02/24 10:00:59;;;;;;;2.30;1.33;;;16.90;54.00;;;;;;5113201;28;20206;-64
2023/02/24 10:03:41;;;;;;;3.05;1.10;;;16.90;54.30;;;;;;5112983;28;20184;-68
2023/02/24 10:06:24;;;;;;;2.35;1.17;;;16.90;54.20;;;;;;5112480;28;20179;-62
2023/02/24 10:08:58;;;;;;;3.63;1.40;;;16.90;54.30;;;;;;5110953;28;20184;-63
2023/02/24 10:11:33;;;;;;;2.60;1.40;;;16.80;54.40;;;;;;5112021;28;20630;-64
2023/02/24 10:14:01;;;;;;;3.33;1.38;;;16.90;54.50;;;;;;5112313;28;20179;-63
2023/02/24 10:16:40;;;;;;;3.20;1.67;;;16.90;54.40;;;;;;5111266;28;20220;-62
2023/02/24 10:19:26;;;;;;;2.45;1.35;;;17.00;54.30;;;;;;5111235;28;20303;-64
2023/02/24 10:22:01;;;;;;;1.60;1.25;;;17.20;54.10;;;;;;5112439;28;20538;-63
2023/02/24 10:24:46;;;;;;;2.58;1.20;;;17.30;53.90;;;;;;5111281;28;20174;-64
2023/02/24 10:27:22;;;;;;;3.92;1.65;;;17.50;53.60;;;;;;5112126;28;20173;-63
2023/02/24 10:30:26;;;;;;;2.38;1.20;;;17.60;53.40;;;;;;5110632;28;20580;-64
2023/02/24 10:32:57;;;;;;;1.63;0.90;;;17.80;53.10;;;;;;5111776;28;20184;-64
2023/02/24 10:35:24;;;;;;;3.67;1.35;;;18.10;52.90;;;;;;5112921;28;20717;-64
2023/02/24 10:37:59;;;;;;;2.90;1.20;;;18.20;52.70;;;;;;5111924;28;20542;-64
2023/02/24 10:40:43;;;;;;;2.83;1.00;;;18.30;52.60;;;;;;5113164;28;20160;-63
2023/02/24 10:43:16;;;;;;;2.88;1.20;;;18.30;52.30;;;;;;5112994;28;20181;-63
2023/02/24 10:45:43;;;;;;;1.95;1.00;;;18.50;52.30;;;;;;5112004;28;20177;-64
2023/02/24 10:48:14;;;;;;;2.45;1.15;;;18.50;52.20;;;;;;5112332;28;20275;-62
2023/02/24 10:50:43;;;;;;;3.80;1.10;;;18.50;52.20;;;;;;5110258;28;20209;-60
2023/02/24 10:56:13;;;;;;;2.15;1.15;;;18.50;52.10;;;;;;5139179;27;20184;-63
2023/02/24 10:58:55;;;;;;;3.75;1.35;;;18.50;52.30;;;;;;5111106;28;20173;-68
2023/02/24 11:01:58;;;;;;;3.45;1.25;;;18.40;52.30;;;;;;5113099;28;20181;-66
2023/02/24 11:04:42;;;;;;;5.28;1.50;;;18.50;52.40;;;;;;5112722;28;20172;-62
2023/02/24 11:07:23;;;;;;;5.07;1.30;;;18.40;52.50;;;;;;5112140;28;20253;-63
2023/02/24 11:09:51;;;;;;;2.38;1.20;;;18.40;52.60;;;;;;5112578;28;20220;-63
2023/02/24 11:18:16;;;;;;;2.95;0.95;;;18.30;52.90;;;;;;5111569;28;20361;-62
2023/02/24 11:20:46;;;;;;;3.13;1.30;;;18.30;53.00;;;;;;5110653;28;20223;-63
2023/02/24 11:23:21;;;;;;;2.22;1.20;;;18.20;53.00;;;;;;5111469;28;20230;-64
2023/02/24 11:26:21;;;;;;;2.70;1.20;;;18.20;53.00;;;;;;5112405;28;20169;-63
2023/02/24 11:29:10;;;;;;;4.43;1.40;;;18.30;53.10;;;;;;5107813;28;20658;-63
2023/02/24 11:32:02;;;;;;;3.35;1.30;;;18.30;53.00;;;;;;5114379;28;20202;-64
2023/02/24 11:34:48;;;;;;;3.03;1.02;;;18.30;53.00;;;;;;5115793;28;20173;-65
2023/02/24 11:37:19;;;;;;;3.40;1.23;;;18.30;53.10;;;;;;5115607;28;20527;-63
2023/02/24 11:40:11;;;;;;;3.00;1.20;;;18.30;53.10;;;;;;5116210;28;20165;-63
2023/02/24 11:43:00;;;;;;;2.40;1.10;;;18.30;53.00;;;;;;5115904;28;20184;-64
2023/02/24 11:45:51;;;;;;;2.35;1.20;;;18.30;53.00;;;;;;5108383;28;20269;-63
2023/02/24 11:48:34;;;;;;;2.80;1.40;;;18.20;53.00;;;;;;5114241;28;20181;-63
2023/02/24 11:51:03;;;;;;;2.47;1.48;;;18.20;53.70;;;;;;5114891;28;20213;-63
2023/02/24 11:53:51;;;;;;;2.70;1.02;;;18.20;53.10;;;;;;5116006;28;20525;-63
2023/02/24 11:56:42;;;;;;;1.35;1.00;;;18.10;53.20;;;;;;5114206;28;20256;-64
2023/02/24 11:59:14;;;;;;;2.17;1.05;;;18.00;53.30;;;;;;5114790;28;20674;-71
2023/02/24 12:01:51;;;;;;;3.78;1.20;;;18.00;53.40;;;;;;5115097;28;20587;-64
2023/02/24 12:04:17;;;;;;;2.85;1.20;;;17.90;53.60;;;;;;5114706;28;20230;-67
2023/02/24 12:06:58;;;;;;;2.25;1.15;;;17.90;53.60;;;;;;5115502;28;20200;-67
2023/02/24 12:09:27;;;;;;;1.35;0.93;;;17.90;53.60;;;;;;5114966;28;20245;-63
2023/02/24 12:12:21;;;;;;;4.75;1.50;;;17.90;53.60;;;;;;5114206;28;20165;-63
2023/02/24 12:14:57;;;;;;;2.30;1.40;;;17.90;53.50;;;;;;5105624;28;20211;-70
2023/02/24 12:17:56;;;;;;;2.40;1.02;;;18.00;53.60;;;;;;5114848;28;20180;-70
2023/02/24 12:20:31;;;;;;;2.80;1.30;;;18.00;53.60;;;;;;5114369;28;20177;-70
2023/02/24 12:23:17;;;;;;;3.47;0.98;;;18.00;53.60;;;;;;5113504;28;20215;-69
2023/02/24 12:26:03;;;;;;;3.95;1.23;;;18.10;53.70;;;;;;5113855;28;20181;-64
2023/02/24 12:28:59;;;;;;;2.25;1.00;;;18.00;53.60;;;;;;5114072;28;20173;-63
2023/02/24 12:31:52;;;;;;;3.25;1.27;;;18.00;53.70;;;;;;5082639;28;20189;-65
2023/02/24 12:34:26;;;;;;;3.35;1.35;;;18.00;53.80;;;;;;5115344;28;20181;-65
2023/02/24 12:37:17;;;;;;;3.22;0.93;;;17.90;54.40;;;;;;5112410;28;20180;-63
2023/02/24 12:40:05;;;;;;;1.63;0.90;;;17.90;53.80;;;;;;5112580;28;20178;-64
2023/02/24 12:42:40;;;;;;;2.70;1.10;;;17.90;53.90;;;;;;5113767;28;20177;-63
2023/02/24 12:45:21;;;;;;;2.30;1.40;;;17.90;53.90;;;;;;5113272;28;20184;-66
2023/02/24 12:47:49;;;;;;;2.30;1.38;;;17.80;54.00;;;;;;5113887;28;20532;-63
2023/02/24 12:50:36;;;;;;;2.00;1.00;;;17.80;54.10;;;;;;5114550;28;20215;-62
2023/02/24 12:53:12;;;;;;;3.00;1.30;;;17.80;54.10;;;;;;5113981;28;20651;-62
2023/02/24 12:56:00;;;;;;;1.98;1.30;;;17.80;54.00;;;;;;5113386;28;20180;-64
2023/02/24 12:58:31;;;;;;;2.80;1.10;;;17.90;54.00;;;;;;5113118;28;20173;-63
2023/02/24 13:01:08;;;;;;;2.92;0.90;;;17.90;53.90;;;;;;5113788;28;20208;-63
2023/02/24 13:04:04;;;;;;;2.80;1.33;;;17.90;53.90;;;;;;5114499;28;20646;-63
2023/02/24 13:06:46;;;;;;;1.95;1.17;;;17.90;53.90;;;;;;5113901;28;20171;-62
2023/02/24 13:09:53;;;;;;;2.53;1.05;;;17.80;53.90;;;;;;5113353;28;20748;-62
2023/02/24 13:12:26;;;;;;;3.03;1.15;;;17.80;54.00;;;;;;5113760;28;20264;-64
2023/02/24 13:14:51;;;;;;;1.13;0.90;;;17.80;54.10;;;;;;5114168;28;20181;-64
2023/02/24 13:17:19;;;;;;;1.70;0.80;;;17.80;54.10;;;;;;5113428;28;20181;-65
2023/02/24 13:19:45;;;;;;;1.63;0.80;;;17.80;54.20;;;;;;5112571;28;20236;-65
2023/02/24 13:22:11;;;;;;;2.40;1.02;;;17.80;54.20;;;;;;5114302;28;20181;-65
2023/02/24 13:24:54;;;;;;;2.63;0.73;;;17.80;54.10;;;;;;5114119;28;20161;-64
2023/02/24 13:27:31;;;;;;;1.35;0.90;;;17.90;54.10;;;;;;5112680;28;20181;-64
2023/02/24 13:29:59;;;;;;;1.52;1.05;;;17.90;54.00;;;;;;5113158;28;20216;-64
2023/02/24 13:32:34;;;;;;;2.25;1.20;;;17.90;54.00;;;;;;5112671;28;20222;-64
2023/02/24 13:35:19;;;;;;;3.22;1.02;;;17.90;54.10;;;;;;5114293;28;20619;-66
2023/02/24 13:37:48;;;;;;;2.83;1.48;;;17.90;54.10;;;;;;5102868;27;20177;-65
2023/02/24 13:40:16;;;;;;;2.72;1.25;;;17.90;54.20;;;;;;5112078;28;20213;-63
2023/02/24 13:43:02;;;;;;;4.30;1.10;;;17.80;54.30;;;;;;5113721;28;20265;-63
2023/02/24 13:45:32;;;;;;;1.10;0.80;;;17.70;54.30;;;;;;5113794;28;20185;-67